Pomerode, Brazil
Current Conditions -  °F | °C
As of 5:00 PM on Saturday 20 Dec 2014 (Local Time) from SBNF Reporting Station
Scattered Clouds Scattered Clouds  
Wind Chill: 82°   Ceiling: Unl
Heat Index: 91°   Visibility: 6mi
Dew Point: 77°   Wind: 14mph
Humidity: 84%   Direction: 30°NNE
Pressure: 29.65"   Gusts: NA
Location:  26.75°S, 49.17°W
Report Text: SBNF 201900Z 03012KT 9999 SCT025 28/25 Q1004
Loading
Personal Weather Stations






























Interactive Weather Map New forecast layout! Learn more

10-Day Weather Forecast

Advertisements
Track Severe Weather on mobile